Time;durP1;ratioP1;P1;durP2;ratioP2;P2;SDS_P1;SDS_P2;PMS_P1;PMS_P2;Temp;Humidity;BMP_temperature;BMP_pressure;BME280_temperature;BME280_humidity;BME280_pressure;Samples;Min_cycle;Max_cycle;Signal;HPM_P1;HPM_P2
2023/02/26 00:02:09;;;;;;;1999.90;999.90;;;1.00;99.90;;;;;;5029355;28;20444;-67
2023/02/26 00:04:36;;;;;;;1999.90;999.90;;;1.00;99.90;;;;;;5028876;28;20573;-66
2023/02/26 00:07:04;;;;;;;1999.90;999.90;;;1.00;99.90;;;;;;5029525;28;20459;-68
2023/02/26 00:09:32;;;;;;;1999.90;999.90;;;0.90;99.90;;;;;;5030021;28;20452;-67
2023/02/26 00:12:01;;;;;;;1999.90;999.90;;;0.90;99.90;;;;;;5029613;28;20449;-68
2023/02/26 00:14:28;;;;;;;1999.90;999.90;;;0.80;99.90;;;;;;5028960;28;20445;-67
2023/02/26 00:17:09;;;;;;;1999.90;999.90;;;0.80;99.90;;;;;;5029290;28;20445;-67
2023/02/26 00:19:36;;;;;;;1999.90;999.90;;;0.70;99.90;;;;;;5029071;28;20776;-67
2023/02/26 00:22:04;;;;;;;1999.90;999.90;;;0.70;99.90;;;;;;5029477;28;20449;-67
2023/02/26 00:24:30;;;;;;;1999.90;999.90;;;0.70;99.90;;;;;;5028377;28;20500;-67
2023/02/26 00:26:57;;;;;;;1999.90;999.90;;;0.70;99.90;;;;;;5029265;28;20460;-67
2023/02/26 00:29:26;;;;;;;1999.90;999.90;;;0.60;99.90;;;;;;5029005;28;20452;-67
2023/02/26 00:31:53;;;;;;;1999.90;999.90;;;0.60;99.90;;;;;;5028817;28;20448;-66
2023/02/26 00:34:21;;;;;;;1999.90;999.90;;;0.50;99.90;;;;;;5028067;28;20845;-66
2023/02/26 00:36:57;;;;;;;1999.90;999.90;;;0.40;99.90;;;;;;5029047;28;20453;-68
2023/02/26 00:39:37;;;;;;;1999.90;999.90;;;0.40;99.90;;;;;;5029560;28;20455;-68
2023/02/26 00:42:05;;;;;;;1999.90;999.90;;;0.30;99.90;;;;;;5028755;28;21180;-67
2023/02/26 00:44:34;;;;;;;1999.90;999.90;;;0.30;99.90;;;;;;5027934;28;20484;-67
2023/02/26 00:47:08;;;;;;;1999.90;999.90;;;0.40;99.90;;;;;;5029094;28;20476;-66
2023/02/26 00:49:54;;;;;;;1999.90;999.90;;;0.40;99.90;;;;;;5028705;28;20452;-65
2023/02/26 00:52:28;;;;;;;1999.90;999.90;;;0.40;99.90;;;;;;5028330;28;20480;-67
2023/02/26 00:54:55;;;;;;;1999.90;999.90;;;0.40;99.90;;;;;;5028070;28;20976;-68
2023/02/26 00:57:22;;;;;;;1999.90;999.90;;;0.30;99.90;;;;;;5029415;28;20456;-67
2023/02/26 00:59:50;;;;;;;1999.90;999.90;;;0.30;99.90;;;;;;5027619;28;20448;-67
2023/02/26 01:02:17;;;;;;;1999.90;999.90;;;0.30;99.90;;;;;;5027992;28;20465;-67
2023/02/26 01:04:45;;;;;;;1999.90;999.90;;;0.20;99.90;;;;;;5027391;28;20516;-67
2023/02/26 01:07:13;;;;;;;1999.90;999.90;;;0.20;99.90;;;;;;5028949;28;21032;-67
2023/02/26 01:09:40;;;;;;;1999.90;999.90;;;0.10;99.90;;;;;;5028060;28;20810;-67
2023/02/26 01:12:10;;;;;;;1999.90;999.90;;;0.10;99.90;;;;;;5028391;28;20450;-67
2023/02/26 01:14:37;;;;;;;1999.90;999.90;;;0.00;99.90;;;;;;5027437;28;20449;-68
2023/02/26 01:17:15;;;;;;;1999.90;999.90;;;0.00;99.90;;;;;;5028348;28;20448;-68
2023/02/26 01:19:45;;;;;;;1999.90;999.90;;;-0.10;99.90;;;;;;5028283;28;20449;-66
2023/02/26 01:22:16;;;;;;;1999.90;999.90;;;-0.20;99.90;;;;;;5027620;28;20476;-67
2023/02/26 01:24:44;;;;;;;1999.90;999.90;;;-0.20;99.90;;;;;;5027310;28;20492;-67
2023/02/26 01:27:11;;;;;;;1999.90;999.90;;;-0.30;99.90;;;;;;5024531;28;20461;-68
2023/02/26 01:29:38;;;;;;;1999.90;999.90;;;-0.20;99.90;;;;;;5027393;28;20449;-67
2023/02/26 01:32:12;;;;;;;1999.90;999.90;;;-0.30;99.90;;;;;;5027530;28;20449;-68
2023/02/26 01:34:46;;;;;;;1999.90;999.90;;;-0.30;99.90;;;;;;5026445;28;20448;-67
2023/02/26 01:37:22;;;;;;;1999.90;999.90;;;-0.40;99.90;;;;;;5028429;28;20862;-67
2023/02/26 01:40:02;;;;;;;1999.90;999.90;;;-0.50;99.90;;;;;;5028173;28;20976;-68
2023/02/26 01:42:35;;;;;;;1999.90;999.90;;;-0.60;99.90;;;;;;5027391;28;20477;-66
2023/02/26 01:45:11;;;;;;;1999.90;999.90;;;-0.60;99.90;;;;;;5027378;28;20481;-67
2023/02/26 01:47:45;;;;;;;1999.90;999.90;;;-0.60;99.90;;;;;;5027997;28;20444;-67
2023/02/26 01:50:15;;;;;;;1999.90;999.90;;;-0.70;99.90;;;;;;5028337;28;20483;-67
2023/02/26 01:53:23;;;;;;;1999.90;999.90;;;-0.80;99.90;;;;;;5026694;28;20461;-67
2023/02/26 01:55:55;;;;;;;1999.90;999.90;;;-0.80;99.90;;;;;;5028209;28;20433;-68
2023/02/26 01:58:24;;;;;;;1999.90;999.90;;;-0.80;99.90;;;;;;5028184;28;20445;-68
2023/02/26 02:00:51;;;;;;;1999.90;999.90;;;-0.80;99.90;;;;;;5027641;28;20433;-67
2023/02/26 02:03:21;;;;;;;1999.90;999.90;;;-0.80;99.90;;;;;;5027387;28;20883;-67
2023/02/26 02:05:51;;;;;;;1999.90;999.90;;;-0.80;99.90;;;;;;5028242;28;20485;-69
2023/02/26 02:08:20;;;;;;;1999.90;999.90;;;-0.90;99.90;;;;;;5030087;28;20835;-67
2023/02/26 02:10:48;;;;;;;1999.90;999.90;;;-0.90;99.90;;;;;;5029201;28;20452;-67
2023/02/26 02:13:28;;;;;;;1999.90;999.90;;;-1.00;99.90;;;;;;5028372;28;20857;-67
2023/02/26 02:16:06;;;;;;;1999.90;999.90;;;-1.00;99.90;;;;;;5029770;28;20451;-68
2023/02/26 02:18:43;;;;;;;1999.90;999.90;;;-1.00;99.90;;;;;;5030105;28;20456;-67
2023/02/26 02:21:33;;;;;;;1999.90;999.90;;;-1.00;99.90;;;;;;5030110;28;20448;-67
2023/02/26 02:24:07;;;;;;;1999.90;999.90;;;-1.00;99.90;;;;;;5016160;28;20473;-67
2023/02/26 02:27:02;;;;;;;1999.90;999.90;;;-1.00;99.90;;;;;;5029955;28;20455;-66
2023/02/26 02:29:52;;;;;;;1999.90;999.90;;;-1.10;99.90;;;;;;5030417;28;20441;-67
2023/02/26 02:32:25;;;;;;;1999.90;999.90;;;-1.20;99.90;;;;;;5029353;28;20483;-66
2023/02/26 02:34:57;;;;;;;1999.90;999.90;;;-1.20;99.90;;;;;;5029971;28;20457;-67
2023/02/26 02:37:28;;;;;;;1999.90;999.90;;;-1.30;99.90;;;;;;5030297;28;20459;-67
2023/02/26 02:40:00;;;;;;;1999.90;999.90;;;-1.40;99.90;;;;;;5029898;28;20946;-66
2023/02/26 02:42:31;;;;;;;1999.90;999.90;;;-1.50;99.90;;;;;;5028549;28;21186;-66
2023/02/26 02:45:01;;;;;;;1999.90;999.90;;;-1.50;99.90;;;;;;5029876;28;20484;-65
2023/02/26 02:47:34;;;;;;;1999.90;999.90;;;-1.50;99.90;;;;;;5029776;28;20531;-67
2023/02/26 02:50:06;;;;;;;1999.90;999.90;;;-1.50;99.90;;;;;;5030081;28;20930;-66
2023/02/26 02:52:41;;;;;;;1999.90;999.90;;;-1.50;99.90;;;;;;5029278;28;20475;-66
2023/02/26 02:55:13;;;;;;;1999.90;999.90;;;-1.70;99.90;;;;;;5042577;28;20455;-65
2023/02/26 02:57:43;;;;;;;1999.90;999.90;;;-1.80;99.90;;;;;;5050322;28;20444;-66
2023/02/26 03:00:13;;;;;;;1999.90;999.90;;;-1.90;99.90;;;;;;5049526;28;20452;-67
2023/02/26 03:02:48;;;;;;;1999.90;999.90;;;-1.90;99.90;;;;;;5047955;28;20460;-67
2023/02/26 03:05:16;;;;;;;1999.90;999.90;;;-1.80;99.90;;;;;;5049592;28;20570;-67
2023/02/26 03:07:49;;;;;;;1999.90;999.90;;;-1.80;99.90;;;;;;5049844;28;20452;-66
2023/02/26 03:10:17;;;;;;;1999.90;999.90;;;-1.80;99.90;;;;;;5036759;28;20473;-67
2023/02/26 03:12:43;;;;;;;1999.90;999.90;;;-1.80;99.90;;;;;;5028777;28;20855;-67
2023/02/26 03:15:11;;;;;;;1999.90;999.90;;;-1.80;99.90;;;;;;5029952;28;20825;-66
2023/02/26 03:17:48;;;;;;;1999.90;999.90;;;-1.70;99.90;;;;;;5029676;28;20459;-67
2023/02/26 03:20:24;;;;;;;1999.90;999.90;;;-1.50;99.90;;;;;;5030219;28;20456;-66
2023/02/26 03:23:05;;;;;;;1999.90;999.90;;;-1.40;99.90;;;;;;5028982;28;20468;-66
2023/02/26 03:25:43;;;;;;;1999.90;999.90;;;-1.30;99.90;;;;;;5034386;28;20546;-67
2023/02/26 03:28:25;;;;;;;1999.90;999.90;;;-1.20;99.90;;;;;;5033397;28;20979;-66
2023/02/26 03:30:58;;;;;;;1999.90;999.90;;;-1.20;99.90;;;;;;5033834;28;20448;-66
2023/02/26 03:33:39;;;;;;;1999.90;999.90;;;-1.10;99.90;;;;;;5032130;28;20464;-67
2023/02/26 03:36:11;;;;;;;1999.90;999.90;;;-1.20;99.90;;;;;;5033592;28;20429;-65
2023/02/26 03:38:45;;;;;;;1999.90;999.90;;;-1.30;99.90;;;;;;5033729;28;20452;-67
2023/02/26 03:41:17;;;;;;;1999.90;999.90;;;-1.40;99.90;;;;;;5033980;28;20455;-66
2023/02/26 03:43:48;;;;;;;1999.90;999.90;;;-1.40;99.90;;;;;;5032107;28;20472;-66
2023/02/26 03:46:20;;;;;;;1999.90;999.90;;;-1.50;99.90;;;;;;5033549;28;20477;-66
2023/02/26 03:48:51;;;;;;;1999.90;999.90;;;-1.50;99.90;;;;;;5032947;28;20488;-66
2023/02/26 03:51:19;;;;;;;1999.90;999.90;;;-1.50;99.90;;;;;;5032953;28;20457;-67
2023/02/26 03:53:51;;;;;;;1999.90;999.90;;;-1.60;99.90;;;;;;5031416;28;20476;-67
2023/02/26 03:56:25;;;;;;;1999.90;999.90;;;-1.60;99.90;;;;;;5032610;28;20437;-66
2023/02/26 03:58:52;;;;;;;1999.90;999.90;;;-1.50;99.90;;;;;;5032732;28;20454;-66
2023/02/26 04:01:23;;;;;;;1999.90;999.90;;;-1.50;99.90;;;;;;5032700;28;20441;-66
2023/02/26 04:03:57;;;;;;;1999.90;999.90;;;-1.50;99.90;;;;;;5031576;28;20465;-67
2023/02/26 04:06:25;;;;;;;1999.90;999.90;;;-1.50;99.90;;;;;;5032135;28;21024;-66
2023/02/26 04:08:52;;;;;;;1999.90;999.90;;;-1.50;99.90;;;;;;5032253;28;20445;-66
2023/02/26 04:11:21;;;;;;;1999.90;999.90;;;-1.50;99.90;;;;;;5031965;28;20449;-66
2023/02/26 04:13:49;;;;;;;1999.90;999.90;;;-1.50;99.90;;;;;;5030785;28;20477;-67
2023/02/26 04:16:17;;;;;;;1999.90;999.90;;;-1.50;99.90;;;;;;5032065;28;20488;-67
2023/02/26 04:18:44;;;;;;;1999.90;999.90;;;-1.50;99.90;;;;;;5031888;28;20488;-65
2023/02/26 04:21:14;;;;;;;1999.90;999.90;;;-1.50;99.90;;;;;;5031886;28;20827;-67
2023/02/26 04:23:41;;;;;;;1999.90;999.90;;;-1.60;99.90;;;;;;5030909;28;20464;-65
2023/02/26 04:26:08;;;;;;;1999.90;999.90;;;-1.60;99.90;;;;;;5031902;28;20476;-67
2023/02/26 04:28:36;;;;;;;1999.90;999.90;;;-1.60;99.90;;;;;;5031641;28;20468;-66
2023/02/26 04:31:03;;;;;;;1999.90;999.90;;;-1.70;99.90;;;;;;5031695;28;21026;-67
2023/02/26 04:33:32;;;;;;;1999.90;999.90;;;-1.80;99.90;;;;;;5030332;28;20465;-67
2023/02/26 04:35:58;;;;;;;1999.90;999.90;;;-1.90;99.90;;;;;;5030899;28;20453;-67
2023/02/26 04:38:27;;;;;;;1999.90;999.90;;;-1.80;99.90;;;;;;5031297;28;20447;-67
2023/02/26 04:40:54;;;;;;;1999.90;999.90;;;-1.90;99.90;;;;;;5031610;28;20449;-67
2023/02/26 04:43:21;;;;;;;1999.90;999.90;;;-1.90;99.90;;;;;;5030393;28;20461;-67
2023/02/26 04:45:48;;;;;;;1999.90;999.90;;;-2.00;99.90;;;;;;5031111;28;20865;-67
2023/02/26 04:48:16;;;;;;;1999.90;999.90;;;-2.00;99.90;;;;;;5031386;28;20456;-66
2023/02/26 04:50:43;;;;;;;1999.90;999.90;;;-2.00;99.90;;;;;;5030989;28;20460;-66
2023/02/26 04:53:10;;;;;;;1999.90;999.90;;;-2.10;99.90;;;;;;5030545;28;20468;-66
2023/02/26 04:55:39;;;;;;;1999.90;999.90;;;-2.20;99.90;;;;;;5031309;28;20450;-67
2023/02/26 04:58:07;;;;;;;1999.90;999.90;;;-2.20;99.90;;;;;;5031485;28;20444;-68
2023/02/26 05:00:34;;;;;;;1999.90;999.90;;;-2.20;99.90;;;;;;5030763;28;20445;-67
2023/02/26 05:03:01;;;;;;;1999.90;999.90;;;-2.20;99.90;;;;;;5029750;28;20465;-67
2023/02/26 05:05:27;;;;;;;1999.90;999.90;;;-2.20;99.90;;;;;;5029711;28;20493;-66
2023/02/26 05:07:55;;;;;;;1999.90;999.90;;;-2.20;99.90;;;;;;5030360;28;20472;-67
2023/02/26 05:10:22;;;;;;;1999.90;999.90;;;-2.20;99.90;;;;;;5030616;28;20456;-67
2023/02/26 05:12:50;;;;;;;1999.90;999.90;;;-2.40;99.90;;;;;;5029456;28;20975;-67
2023/02/26 05:15:17;;;;;;;1999.90;999.90;;;-2.50;99.90;;;;;;5030835;28;20451;-67
2023/02/26 05:17:44;;;;;;;1999.90;999.90;;;-2.50;99.90;;;;;;5030605;28;20449;-68
2023/02/26 05:20:12;;;;;;;1999.90;999.90;;;-2.50;99.90;;;;;;5030840;28;20947;-67
2023/02/26 05:22:39;;;;;;;1999.90;999.90;;;-2.60;99.90;;;;;;5029266;28;20476;-66
2023/02/26 05:25:08;;;;;;;1999.90;999.90;;;-2.60;99.90;;;;;;5030980;28;20451;-66
2023/02/26 05:27:35;;;;;;;1999.90;999.90;;;-2.60;99.90;;;;;;5030605;28;20452;-67
2023/02/26 05:30:03;;;;;;;1999.90;999.90;;;-2.60;99.90;;;;;;5030684;28;20447;-67
2023/02/26 05:32:30;;;;;;;1999.90;999.90;;;-2.60;99.90;;;;;;5029492;28;20487;-66
2023/02/26 05:34:57;;;;;;;1999.90;999.90;;;-2.60;99.90;;;;;;5030447;28;20456;-67
2023/02/26 05:37:23;;;;;;;1999.90;999.90;;;-2.70;99.90;;;;;;5030889;28;20460;-67
2023/02/26 05:39:50;;;;;;;1999.90;999.90;;;-2.80;99.90;;;;;;5030387;28;20449;-67
2023/02/26 05:42:17;;;;;;;1999.90;999.90;;;-2.80;99.90;;;;;;5030246;28;20468;-66
2023/02/26 05:44:44;;;;;;;1999.90;999.90;;;-2.90;99.90;;;;;;5029778;28;20460;-67
2023/02/26 05:47:12;;;;;;;1999.90;999.90;;;-2.90;99.90;;;;;;5029676;28;20492;-67
2023/02/26 05:49:39;;;;;;;1999.90;999.90;;;-2.90;99.90;;;;;;5030288;28;20464;-67
2023/02/26 05:52:05;;;;;;;1999.90;999.90;;;-2.80;99.90;;;;;;5030296;28;20441;-66
2023/02/26 05:54:33;;;;;;;1999.90;999.90;;;-2.80;99.90;;;;;;5029393;28;20460;-67
2023/02/26 05:57:00;;;;;;;1999.90;999.90;;;-2.80;99.90;;;;;;5031227;28;20523;-66
2023/02/26 05:59:26;;;;;;;1999.90;999.90;;;-2.80;99.90;;;;;;5030368;28;20939;-67
2023/02/26 06:01:53;;;;;;;1999.90;999.90;;;-2.80;99.90;;;;;;5030142;28;20456;-67
2023/02/26 06:04:21;;;;;;;1999.90;999.90;;;-2.90;99.90;;;;;;5029252;28;20959;-67
2023/02/26 06:06:48;;;;;;;1999.90;999.90;;;-2.90;99.90;;;;;;5029989;28;20489;-67
2023/02/26 06:09:15;;;;;;;1999.90;999.90;;;-2.90;99.90;;;;;;5030407;28;20460;-67
2023/02/26 06:11:42;;;;;;;1999.90;999.90;;;-2.90;99.90;;;;;;5029953;28;20437;-67
2023/02/26 06:14:08;;;;;;;1999.90;999.90;;;-3.00;99.90;;;;;;5029427;28;20468;-67
2023/02/26 06:16:35;;;;;;;1999.90;999.90;;;-2.90;99.90;;;;;;5030133;28;20437;-66
2023/02/26 06:19:02;;;;;;;1999.90;999.90;;;-3.00;99.90;;;;;;5031221;28;20445;-66
2023/02/26 06:21:30;;;;;;;1999.90;999.90;;;-3.00;99.90;;;;;;5030313;28;21004;-67
2023/02/26 06:23:57;;;;;;;1999.90;999.90;;;-3.00;99.90;;;;;;5029266;28;20464;-67
2023/02/26 06:26:24;;;;;;;1999.90;999.90;;;-2.80;99.90;;;;;;5030166;28;20477;-66
2023/02/26 06:28:51;;;;;;;1999.90;999.90;;;-2.70;99.90;;;;;;5030214;28;20455;-68
2023/02/26 06:31:18;;;;;;;1999.90;999.90;;;-2.50;99.90;;;;;;5030166;28;20456;-67
2023/02/26 06:33:45;;;;;;;1999.90;999.90;;;-2.40;99.90;;;;;;5029322;28;20460;-66
2023/02/26 06:36:11;;;;;;;1999.90;999.90;;;-2.20;99.90;;;;;;5034523;28;20531;-66
2023/02/26 06:38:40;;;;;;;1999.90;999.90;;;-2.10;99.90;;;;;;5030655;28;20464;-67
2023/02/26 06:41:07;;;;;;;1999.90;999.90;;;-2.00;99.90;;;;;;5030076;28;20460;-66
2023/02/26 06:43:34;;;;;;;1999.90;999.90;;;-1.90;99.90;;;;;;5028310;28;20461;-66
2023/02/26 06:46:01;;;;;;;1999.90;999.90;;;-1.80;99.90;;;;;;5029846;28;20492;-67
2023/02/26 06:48:29;;;;;;;1999.90;999.90;;;-1.70;99.90;;;;;;5029799;28;20459;-67
2023/02/26 06:50:55;;;;;;;1999.90;999.90;;;-1.60;99.90;;;;;;5029499;28;20455;-67
2023/02/26 06:53:23;;;;;;;1999.90;999.90;;;-1.60;99.90;;;;;;5028417;28;20468;-67
2023/02/26 06:55:52;;;;;;;1999.90;999.90;;;-1.60;99.90;;;;;;5029191;28;20443;-66
2023/02/26 06:58:20;;;;;;;1999.90;999.90;;;-1.60;99.90;;;;;;5030891;28;21116;-67
2023/02/26 07:00:47;;;;;;;1999.90;999.90;;;-1.50;99.90;;;;;;5033157;28;20449;-67
2023/02/26 07:03:16;;;;;;;1999.90;999.90;;;-1.30;99.90;;;;;;5032224;28;20468;-67
2023/02/26 07:05:44;;;;;;;1999.90;999.90;;;-1.20;99.90;;;;;;5033117;28;20457;-67
2023/02/26 07:08:11;;;;;;;1999.90;999.90;;;-1.10;99.90;;;;;;5033216;28;21167;-66
2023/02/26 07:10:38;;;;;;;1999.90;999.90;;;-1.00;99.90;;;;;;5033620;28;20470;-67
2023/02/26 07:13:06;;;;;;;1999.90;999.90;;;-1.00;99.90;;;;;;5031999;28;20849;-66
2023/02/26 07:15:33;;;;;;;1999.90;999.90;;;-1.00;99.90;;;;;;5033764;28;20457;-67
2023/02/26 07:18:00;;;;;;;1999.90;999.90;;;-0.90;99.90;;;;;;5033218;28;20448;-66
2023/02/26 07:20:28;;;;;;;1999.90;999.90;;;-0.90;99.90;;;;;;5033731;28;20453;-67
2023/02/26 07:22:55;;;;;;;1999.90;999.90;;;-0.80;99.90;;;;;;5031375;28;20469;-67
2023/02/26 07:25:22;;;;;;;1999.90;999.90;;;-0.70;99.90;;;;;;5032839;28;20441;-67
2023/02/26 07:27:48;;;;;;;1999.90;999.90;;;-0.60;99.90;;;;;;5032556;28;20476;-67
2023/02/26 07:30:17;;;;;;;1999.90;999.90;;;-0.40;99.90;;;;;;5032968;28;20447;-66
2023/02/26 07:32:44;;;;;;;1999.90;999.90;;;-0.40;99.90;;;;;;5031698;28;20564;-67
2023/02/26 07:35:11;;;;;;;1999.90;999.90;;;-0.30;99.90;;;;;;5032812;28;20807;-66
2023/02/26 07:37:38;;;;;;;1999.90;999.90;;;-0.30;99.90;;;;;;5033189;28;20444;-66
2023/02/26 07:40:06;;;;;;;1999.90;999.90;;;-0.30;99.90;;;;;;5032936;28;20536;-66
2023/02/26 07:42:33;;;;;;;1999.90;999.90;;;-0.30;99.90;;;;;;5031887;28;20472;-66
2023/02/26 07:45:01;;;;;;;1999.90;999.90;;;-0.20;99.90;;;;;;5032369;28;20462;-66
2023/02/26 07:47:29;;;;;;;1999.90;999.90;;;-0.20;99.90;;;;;;5033218;28;20484;-66
2023/02/26 07:49:56;;;;;;;1999.90;999.90;;;-0.10;99.90;;;;;;5032448;28;20449;-66
2023/02/26 07:52:23;;;;;;;1999.90;999.90;;;-0.10;99.90;;;;;;5031884;28;21156;-67
2023/02/26 07:54:49;;;;;;;1999.90;999.90;;;-0.10;99.90;;;;;;5032744;28;20472;-67
2023/02/26 07:57:16;;;;;;;1999.90;999.90;;;0.00;99.90;;;;;;5032747;28;20441;-67
2023/02/26 07:59:43;;;;;;;1999.90;999.90;;;0.10;99.90;;;;;;5032794;28;20468;-68
2023/02/26 08:02:11;;;;;;;1999.90;999.90;;;0.10;99.90;;;;;;5031861;28;20445;-66
2023/02/26 08:04:39;;;;;;;1999.90;999.90;;;0.10;99.90;;;;;;5031461;28;20532;-65
2023/02/26 08:07:06;;;;;;;1999.90;999.90;;;0.20;99.90;;;;;;5031698;28;20484;-68
2023/02/26 08:09:33;;;;;;;1999.90;999.90;;;0.20;99.90;;;;;;5031492;28;20453;-66
2023/02/26 08:12:00;;;;;;;1999.90;999.90;;;0.40;99.90;;;;;;5032036;28;20812;-71
2023/02/26 08:14:27;;;;;;;1999.90;999.90;;;0.50;99.90;;;;;;5031281;28;20539;-68
2023/02/26 08:16:53;;;;;;;1999.90;999.90;;;0.70;99.90;;;;;;5032052;28;20445;-66
2023/02/26 08:19:20;;;;;;;1999.90;999.90;;;0.60;99.90;;;;;;5031995;28;20467;-66
2023/02/26 08:21:48;;;;;;;1999.90;999.90;;;0.50;99.90;;;;;;5031763;28;20468;-66
2023/02/26 08:24:15;;;;;;;1999.90;999.90;;;0.50;99.90;;;;;;5030612;28;20556;-66
2023/02/26 08:26:42;;;;;;;1999.90;999.90;;;0.50;99.90;;;;;;5031850;28;20564;-66
2023/02/26 08:29:09;;;;;;;1999.90;999.90;;;0.40;99.90;;;;;;5031636;28;20459;-66
2023/02/26 08:31:35;;;;;;;1999.90;999.90;;;0.30;99.90;;;;;;5031855;28;20456;-66
2023/02/26 08:34:02;;;;;;;1999.90;999.90;;;0.30;99.90;;;;;;5030245;28;20846;-67
2023/02/26 08:36:29;;;;;;;1999.90;999.90;;;0.20;99.90;;;;;;5031921;28;20491;-70
2023/02/26 08:38:58;;;;;;;1999.90;999.90;;;0.30;99.90;;;;;;5031659;28;20445;-67
2023/02/26 08:41:26;;;;;;;1999.90;999.90;;;0.40;99.90;;;;;;5031769;28;20451;-68
2023/02/26 08:43:53;;;;;;;1999.90;999.90;;;0.50;99.90;;;;;;5030510;28;20538;-68
2023/02/26 08:46:19;;;;;;;1999.90;999.90;;;0.50;99.90;;;;;;5032119;28;20822;-68
2023/02/26 08:48:46;;;;;;;1999.90;999.90;;;0.60;99.90;;;;;;5031054;28;20447;-72
2023/02/26 08:51:13;;;;;;;1999.90;999.90;;;0.50;99.90;;;;;;5031577;28;20468;-68
2023/02/26 08:53:40;;;;;;;1999.90;999.90;;;0.30;99.90;;;;;;5026915;28;20473;-68
2023/02/26 08:56:09;;;;;;;1999.90;999.90;;;0.30;99.90;;;;;;5029037;28;20445;-68
2023/02/26 08:58:35;;;;;;;1999.90;999.90;;;0.40;99.90;;;;;;5031161;28;20449;-68
2023/02/26 09:01:02;;;;;;;1999.90;999.90;;;0.40;99.90;;;;;;5030978;28;20822;-69
2023/02/26 09:03:29;;;;;;;1999.90;999.90;;;0.40;99.90;;;;;;5029816;28;20465;-69
2023/02/26 09:05:56;;;;;;;1999.90;999.90;;;0.40;99.90;;;;;;5031187;28;20452;-68
2023/02/26 09:08:22;;;;;;;1999.90;999.90;;;0.50;99.90;;;;;;5031063;28;21100;-69
2023/02/26 09:10:49;;;;;;;1999.90;999.90;;;0.60;99.90;;;;;;5031158;28;20962;-68
2023/02/26 09:13:17;;;;;;;1999.90;999.90;;;0.60;99.90;;;;;;5029671;28;20823;-68
2023/02/26 09:15:44;;;;;;;1999.90;999.90;;;0.80;99.90;;;;;;5031012;28;20461;-67
2023/02/26 09:18:14;;;;;;;1999.90;999.90;;;0.90;99.90;;;;;;5030841;28;20433;-69
2023/02/26 09:20:42;;;;;;;1999.90;999.90;;;0.90;99.90;;;;;;5030833;28;20460;-67
2023/02/26 09:23:09;;;;;;;1999.90;999.90;;;0.90;99.90;;;;;;5029449;28;20491;-67
2023/02/26 09:25:36;;;;;;;1999.90;999.90;;;0.90;99.90;;;;;;5030656;28;20951;-67
2023/02/26 09:28:03;;;;;;;1999.90;999.90;;;0.90;99.90;;;;;;5030645;28;21092;-67
2023/02/26 09:30:32;;;;;;;1999.90;999.90;;;0.80;99.90;;;;;;5030479;28;20844;-67
2023/02/26 09:32:59;;;;;;;1999.90;999.90;;;0.80;99.90;;;;;;5029647;28;20473;-67
2023/02/26 09:35:26;;;;;;;1999.90;999.90;;;0.70;99.90;;;;;;5030382;28;20975;-68
2023/02/26 09:37:52;;;;;;;1999.90;999.90;;;0.70;99.90;;;;;;5030734;28;21014;-67
2023/02/26 09:40:27;;;;;;;1999.90;999.90;;;0.70;99.90;;;;;;5030447;28;20829;-66
2023/02/26 09:43:07;;;;;;;1999.90;999.90;;;0.80;99.90;;;;;;5029545;28;20483;-68
2023/02/26 09:45:40;;;;;;;1999.90;999.90;;;0.80;99.90;;;;;;5030793;28;20479;-69
2023/02/26 09:48:11;;;;;;;1999.90;999.90;;;0.80;99.90;;;;;;5031108;28;20496;-67
2023/02/26 09:50:41;;;;;;;1999.90;999.90;;;0.80;99.90;;;;;;5030262;28;20925;-69
2023/02/26 09:53:15;;;;;;;1999.90;999.90;;;0.90;99.90;;;;;;5029557;28;20572;-71
2023/02/26 09:55:45;;;;;;;1999.90;999.90;;;0.90;99.90;;;;;;5030739;28;20444;-70
2023/02/26 09:58:18;;;;;;;1999.90;999.90;;;0.90;99.90;;;;;;5025721;28;20503;-66
2023/02/26 10:00:56;;;;;;;1999.90;999.90;;;0.80;99.90;;;;;;5028856;28;20449;-67
2023/02/26 10:03:31;;;;;;;1999.90;999.90;;;0.80;99.90;;;;;;5028878;28;20468;-69
2023/02/26 10:06:18;;;;;;;1999.90;999.90;;;0.80;99.90;;;;;;5040812;28;20451;-67
2023/02/26 10:08:52;;;;;;;1999.90;999.90;;;0.80;99.90;;;;;;5046509;28;21166;-68
2023/02/26 10:11:28;;;;;;;1999.90;999.90;;;1.00;99.90;;;;;;5018909;28;20432;-68
2023/02/26 10:14:00;;;;;;;1999.90;999.90;;;1.20;99.90;;;;;;5048312;28;20892;-68
2023/02/26 10:16:35;;;;;;;1999.90;999.90;;;1.30;99.90;;;;;;5030567;28;20979;-69
2023/02/26 10:19:07;;;;;;;1999.90;999.90;;;1.60;99.90;;;;;;5029135;28;20456;-68
2023/02/26 10:21:40;;;;;;;1999.90;999.90;;;1.70;99.90;;;;;;5029044;28;20897;-69
2023/02/26 10:24:13;;;;;;;1999.90;999.90;;;1.80;99.90;;;;;;5044901;28;20456;-70
2023/02/26 10:26:44;;;;;;;1999.90;999.90;;;2.00;99.90;;;;;;5031898;28;20445;-68
2023/02/26 10:29:20;;;;;;;1999.90;999.90;;;2.20;99.90;;;;;;5013178;28;20832;-68
2023/02/26 10:31:59;;;;;;;1999.90;999.90;;;2.40;99.90;;;;;;5029929;28;20468;-70
2023/02/26 10:34:31;;;;;;;1999.90;999.90;;;2.60;99.90;;;;;;5034720;28;20455;-66
2023/02/26 10:37:05;;;;;;;1999.90;999.90;;;2.30;99.90;;;;;;5028347;28;20471;-68
2023/02/26 10:39:36;;;;;;;1999.90;999.90;;;2.30;99.90;;;;;;5037489;28;20826;-68
2023/02/26 10:42:12;;;;;;;1999.90;999.90;;;2.70;99.90;;;;;;5037235;28;20448;-69
2023/02/26 10:44:45;;;;;;;1999.90;999.90;;;2.80;99.90;;;;;;5036090;28;20960;-68
2023/02/26 10:47:22;;;;;;;1999.90;999.90;;;2.80;99.90;;;;;;5035933;28;21025;-70
2023/02/26 10:49:54;;;;;;;1999.90;999.90;;;3.10;99.90;;;;;;5048788;28;20443;-69
2023/02/26 10:52:24;;;;;;;1999.90;999.90;;;3.30;99.90;;;;;;5032336;28;20475;-71
2023/02/26 10:55:21;;;;;;;1999.90;999.90;;;3.40;99.90;;;;;;5033011;28;20448;-68
2023/02/26 10:57:53;;;;;;;1999.90;999.90;;;3.30;99.90;;;;;;5032642;28;20449;-67
2023/02/26 11:00:22;;;;;;;1999.90;999.90;;;2.90;99.90;;;;;;5034972;28;20823;-68
2023/02/26 11:02:52;;;;;;;1999.90;999.90;;;2.50;99.90;;;;;;5030722;28;20535;-69
2023/02/26 11:05:22;;;;;;;1999.90;999.90;;;2.20;99.90;;;;;;5036210;28;20441;-66
2023/02/26 11:07:54;;;;;;;1999.90;999.90;;;2.10;99.90;;;;;;5032671;28;20487;-67
2023/02/26 11:10:24;;;;;;;1999.90;999.90;;;2.00;99.90;;;;;;5031835;28;20452;-67
2023/02/26 11:12:52;;;;;;;1999.90;999.90;;;2.10;99.90;;;;;;5033321;28;20873;-66
2023/02/26 11:15:21;;;;;;;1999.90;999.90;;;2.10;99.90;;;;;;5033678;28;20452;-68
2023/02/26 11:17:54;;;;;;;1999.90;999.90;;;2.30;99.90;;;;;;5032559;28;20987;-67
2023/02/26 11:20:30;;;;;;;1999.90;999.90;;;2.70;99.90;;;;;;5034247;28;20447;-66
2023/02/26 11:22:59;;;;;;;1999.90;999.90;;;2.70;99.90;;;;;;5031316;28;20485;-67
2023/02/26 11:25:29;;;;;;;1999.90;999.90;;;2.60;99.90;;;;;;5034727;28;20535;-66
2023/02/26 11:28:02;;;;;;;1999.90;999.90;;;2.80;99.90;;;;;;5034768;28;20484;-66
2023/02/26 11:30:32;;;;;;;1999.90;999.90;;;2.90;99.90;;;;;;5035202;28;20452;-67
2023/02/26 11:33:14;;;;;;;1999.90;999.90;;;3.10;99.90;;;;;;5034673;28;20487;-69
2023/02/26 11:35:41;;;;;;;1999.90;999.90;;;3.10;99.90;;;;;;5034816;28;20465;-66
2023/02/26 11:38:15;;;;;;;1999.90;999.90;;;3.20;99.90;;;;;;5033047;28;20969;-66
2023/02/26 11:40:45;;;;;;;1999.90;999.90;;;3.20;99.90;;;;;;5036435;28;20447;-67
2023/02/26 11:43:17;;;;;;;1999.90;999.90;;;3.30;99.90;;;;;;5033896;28;20471;-66
2023/02/26 11:45:47;;;;;;;1999.90;999.90;;;3.30;99.90;;;;;;5024789;28;20460;-68
2023/02/26 11:48:20;;;;;;;1999.90;999.90;;;3.80;99.90;;;;;;5030774;28;20489;-65
2023/02/26 11:50:49;;;;;;;1999.90;999.90;;;4.20;99.90;;;;;;5033831;28;20444;-65
2023/02/26 11:53:18;;;;;;;1999.90;999.90;;;4.80;99.90;;;;;;5043472;28;20484;-67
2023/02/26 11:55:51;;;;;;;1999.90;999.90;;;5.00;99.90;;;;;;5032312;28;20946;-67
2023/02/26 11:58:20;;;;;;;1999.90;999.90;;;4.80;99.90;;;;;;5030993;28;20444;-69
2023/02/26 12:00:48;;;;;;;1999.90;999.90;;;3.90;99.90;;;;;;5048058;28;20947;-68
2023/02/26 12:03:20;;;;;;;1999.90;999.90;;;3.70;99.90;;;;;;5036053;28;20496;-65
2023/02/26 12:05:47;;;;;;;1999.90;999.90;;;3.20;99.90;;;;;;5041396;28;20445;-67
2023/02/26 12:08:20;;;;;;;1999.90;999.90;;;3.10;99.90;;;;;;5044298;28;20476;-70
2023/02/26 12:11:01;;;;;;;1999.90;999.90;;;3.20;99.90;;;;;;5051209;28;20848;-68
2023/02/26 12:13:36;;;;;;;1999.90;999.90;;;3.30;99.90;;;;;;5018257;28;20468;-68
2023/02/26 12:16:14;;;;;;;1999.90;999.90;;;3.00;99.90;;;;;;5027680;28;20443;-66
2023/02/26 12:18:54;;;;;;;1999.90;999.90;;;3.00;99.90;;;;;;5027653;28;20451;-67